METAR Data
IDs: Format: Raw Decoded Include TAF

Data at: 1910 UTC 26 Sep 2021

EKOD 261450Z 12010KT CAVOK 18/17 Q1017